VIAG/AGR METAR and TAF weather

Enter ICAO airport designator
Station Type Date Time Source
VIAG METAR 2020/05/23 14:30 UTC NOAA

VIAG 231430Z VRB02KT 6000 SCT030 SCT090 37/14 Q1001 TEMPO TS


Station Type Date Time Source
VIAG Decoded METAR 2020/05/23 14:30 UTC NOAA

Agra, India (VIAG) 27-09N 077-58E 169M
May 23, 2020 - 10:30 AM EDT / 2020.05.23 1430 UTC
Wind: Variable at 2 MPH (2 KT):0
Visibility: 3 mile(s):0
Sky conditions: partly cloudy
Temperature: 98 F (37 C)
Heat index: 96.8 F (36.0 C):1
Dew Point: 57 F (14 C)
Relative Humidity: 25%
Pressure (altimeter): 29.56 in. Hg (1001 hPa)
ob: VIAG 231430Z VRB02KT 6000 SCT030 SCT090 37/14 Q1001 TEMPO TS
cycle: 14

Station Type Date Time Source
VIAG TAF 2020/06/01 12:30 UTC NOAA

TAF VIAG 010930Z 0112/0124 30008KT 6000 SCT030 SCT200
TEMPO 0112/0116 27010G20KT TSRA FEW030CB SCT030 BKN080

Example: see airport list